createdAt,value
2023-05-20T00:07:54.325Z,5.82
2023-05-20T00:17:56.599Z,5.25
2023-05-20T00:28:00.069Z,5.78
2023-05-20T00:38:02.047Z,5.70
2023-05-20T00:48:06.601Z,6.40
2023-05-20T00:58:08.698Z,5.95
2023-05-20T01:08:12.160Z,5.70
2023-05-20T01:18:15.277Z,6.75
2023-05-20T01:28:18.657Z,7.47
2023-05-20T01:38:22.056Z,6.70
2023-05-20T01:48:25.390Z,5.32
2023-05-20T01:58:27.372Z,6.20
2023-05-20T02:08:30.763Z,6.10
2023-05-20T02:18:32.736Z,5.97
2023-05-20T02:28:36.164Z,7.30
2023-05-20T02:38:38.126Z,6.68
2023-05-20T02:48:41.508Z,6.55
2023-05-20T02:58:43.510Z,8.07
2023-05-20T03:08:46.826Z,6.40
2023-05-20T03:18:48.919Z,7.57
2023-05-20T03:28:52.480Z,7.50
2023-05-20T03:38:54.510Z,6.93
2023-05-20T03:48:57.836Z,7.45
2023-05-20T03:58:59.908Z,7.50
2023-05-20T04:09:03.393Z,8.00
2023-05-20T04:19:05.488Z,7.13
2023-05-20T04:29:08.895Z,7.72
2023-05-20T04:39:10.883Z,9.13
2023-05-20T04:49:14.186Z,7.53
2023-05-20T04:59:16.177Z,8.27
2023-05-20T05:09:19.541Z,9.27
2023-05-20T05:19:21.731Z,8.52
2023-05-20T05:29:25.172Z,9.38
2023-05-20T05:39:27.153Z,9.25
2023-05-20T05:49:30.556Z,8.65
2023-05-20T05:59:32.547Z,8.10
2023-05-20T06:09:35.897Z,10.05
2023-05-20T06:19:37.983Z,10.02
2023-05-20T06:29:43.548Z,9.63
2023-05-20T06:39:45.789Z,10.82
2023-05-20T06:49:49.153Z,8.32
2023-05-20T06:59:51.172Z,8.98
2023-05-20T07:09:55.508Z,7.85
2023-05-20T07:19:57.515Z,9.07
2023-05-20T07:30:01.003Z,7.93
2023-05-20T07:40:03.195Z,9.57
2023-05-20T07:50:07.527Z,8.50
2023-05-20T08:00:10.822Z,7.88
2023-05-20T08:10:14.232Z,7.65
2023-05-20T08:20:16.206Z,7.70
2023-05-20T08:30:19.707Z,6.65
2023-05-20T08:40:22.116Z,7.28
2023-05-20T08:50:25.600Z,6.35
2023-05-20T09:00:27.674Z,4.95
2023-05-20T09:10:31.384Z,5.45
2023-05-20T09:20:35.078Z,7.05
2023-05-20T09:30:38.462Z,4.70
2023-05-20T09:40:42.395Z,5.28
2023-05-20T09:50:45.995Z,5.70
2023-05-20T10:00:47.966Z,4.65
2023-05-20T10:11:01.715Z,4.57
2023-05-20T10:21:03.917Z,3.90
2023-05-20T10:31:17.076Z,4.72
2023-05-20T10:52:41.977Z,4.50
2023-05-20T11:02:44.793Z,3.70
2023-05-20T11:12:49.894Z,4.38
2023-05-20T11:22:52.029Z,4.25
2023-05-20T11:33:16.256Z,3.60
2023-05-20T11:54:26.069Z,4.25
2023-05-20T12:15:51.002Z,3.47
2023-05-20T12:25:52.980Z,2.78
2023-05-20T12:36:14.154Z,3.10
2023-05-20T12:46:16.261Z,3.95
2023-05-20T13:07:28.218Z,2.60
2023-05-20T13:17:30.398Z,2.60
2023-05-20T13:49:25.244Z,3.75
2023-05-20T13:59:27.287Z,3.45
2023-05-20T14:41:04.832Z,4.05
2023-05-20T14:51:06.805Z,2.78
2023-05-20T15:01:16.230Z,3.40
2023-05-20T15:33:21.411Z,2.67
2023-05-20T15:43:35.327Z,2.80
2023-05-20T15:54:27.520Z,3.10
2023-05-20T16:04:31.018Z,3.58
2023-05-20T16:15:13.999Z,3.47
2023-05-20T16:25:33.502Z,3.08
2023-05-20T16:35:35.493Z,3.22
2023-05-20T16:46:09.606Z,3.80
2023-05-20T16:56:13.670Z,3.85
2023-05-20T17:06:16.140Z,3.15
2023-05-20T17:16:19.555Z,3.03
2023-05-20T17:26:21.677Z,2.88
2023-05-20T17:36:25.330Z,2.50
2023-05-20T17:46:27.410Z,3.53
2023-05-20T17:56:30.826Z,3.60
2023-05-20T18:06:32.932Z,2.75
2023-05-20T18:16:36.357Z,3.00
2023-05-20T18:26:38.621Z,2.90
2023-05-20T18:36:42.054Z,2.53
2023-05-20T18:46:44.418Z,3.30
2023-05-20T18:56:47.965Z,3.22
2023-05-20T19:06:49.940Z,4.13
2023-05-20T19:16:53.731Z,3.38
2023-05-20T19:26:55.735Z,3.45
2023-05-20T19:36:59.127Z,3.50
2023-05-20T19:47:01.149Z,4.80
2023-05-20T19:57:04.810Z,5.00
2023-05-20T20:07:06.791Z,5.07
2023-05-20T20:17:10.108Z,3.13
2023-05-20T20:27:12.035Z,5.38
2023-05-20T20:37:16.076Z,4.78
2023-05-20T20:47:18.168Z,5.35
2023-05-20T20:57:21.532Z,3.45
2023-05-20T21:07:23.497Z,2.42
2023-05-20T21:17:26.894Z,4.35
2023-05-20T21:27:28.845Z,2.72
2023-05-20T21:37:32.160Z,2.03
2023-05-20T21:47:34.150Z,2.72
2023-05-20T21:57:38.094Z,2.25
2023-05-20T22:07:40.557Z,2.40
2023-05-20T22:17:44.158Z,2.20
2023-05-20T22:27:46.263Z,4.00
2023-05-20T22:37:49.664Z,2.65
2023-05-20T22:47:51.666Z,2.65
2023-05-20T22:57:55.085Z,5.28
2023-05-20T23:07:57.722Z,2.53
2023-05-20T23:18:01.156Z,2.40
2023-05-20T23:28:03.408Z,2.20
2023-05-20T23:38:06.840Z,2.15
2023-05-20T23:48:08.859Z,2.72
2023-05-20T23:58:12.219Z,2.35
